sensor_id;sensor_type;location;lat;lon;timestamp;temperature;humidity
54576;DHT22;40472;53.486;14.542;2022-11-15T00:05:43;5.40;99.90
54576;DHT22;40472;53.486;14.542;2022-11-15T00:08:12;5.30;99.90
54576;DHT22;40472;53.486;14.542;2022-11-15T00:10:38;5.30;99.90
54576;DHT22;40472;53.486;14.542;2022-11-15T00:13:10;5.40;99.90
54576;DHT22;40472;53.486;14.542;2022-11-15T00:15:40;5.30;99.90
54576;DHT22;40472;53.486;14.542;2022-11-15T00:18:13;5.40;99.90
54576;DHT22;40472;53.486;14.542;2022-11-15T00:20:39;5.50;99.90
54576;DHT22;40472;53.486;14.542;2022-11-15T00:23:05;5.40;99.90
54576;DHT22;40472;53.486;14.542;2022-11-15T00:25:32;5.50;99.90
54576;DHT22;40472;53.486;14.542;2022-11-15T00:27:59;5.50;99.90
54576;DHT22;40472;53.486;14.542;2022-11-15T00:30:25;5.40;99.90
54576;DHT22;40472;53.486;14.542;2022-11-15T00:32:52;5.50;99.90
54576;DHT22;40472;53.486;14.542;2022-11-15T00:35:18;5.60;99.90
54576;DHT22;40472;53.486;14.542;2022-11-15T00:37:44;5.50;99.90
54576;DHT22;40472;53.486;14.542;2022-11-15T00:40:13;5.50;99.90
54576;DHT22;40472;53.486;14.542;2022-11-15T00:42:39;5.60;99.90
54576;DHT22;40472;53.486;14.542;2022-11-15T00:45:13;5.50;99.90
54576;DHT22;40472;53.486;14.542;2022-11-15T00:47:39;5.40;99.90
54576;DHT22;40472;53.486;14.542;2022-11-15T00:50:05;5.50;99.90
54576;DHT22;40472;53.486;14.542;2022-11-15T00:52:31;5.50;99.90
54576;DHT22;40472;53.486;14.542;2022-11-15T00:54:57;5.50;99.90
54576;DHT22;40472;53.486;14.542;2022-11-15T00:57:23;5.60;99.90
54576;DHT22;40472;53.486;14.542;2022-11-15T00:59:49;5.50;99.90
54576;DHT22;40472;53.486;14.542;2022-11-15T01:02:14;5.50;99.90
54576;DHT22;40472;53.486;14.542;2022-11-15T01:04:40;5.50;99.90
54576;DHT22;40472;53.486;14.542;2022-11-15T01:07:09;5.50;99.90
54576;DHT22;40472;53.486;14.542;2022-11-15T01:09:36;5.40;99.90
54576;DHT22;40472;53.486;14.542;2022-11-15T01:12:02;5.50;99.90
54576;DHT22;40472;53.486;14.542;2022-11-15T01:14:33;5.50;99.90
54576;DHT22;40472;53.486;14.542;2022-11-15T01:16:59;5.50;99.90
54576;DHT22;40472;53.486;14.542;2022-11-15T01:19:26;5.50;99.90
54576;DHT22;40472;53.486;14.542;2022-11-15T01:21:52;5.50;99.90
54576;DHT22;40472;53.486;14.542;2022-11-15T01:24:18;5.50;99.90
54576;DHT22;40472;53.486;14.542;2022-11-15T01:26:44;5.50;99.90
54576;DHT22;40472;53.486;14.542;2022-11-15T01:29:10;5.60;99.90
54576;DHT22;40472;53.486;14.542;2022-11-15T01:31:36;5.60;99.90
54576;DHT22;40472;53.486;14.542;2022-11-15T01:34:02;5.60;99.90
54576;DHT22;40472;53.486;14.542;2022-11-15T01:36:29;5.60;99.90
54576;DHT22;40472;53.486;14.542;2022-11-15T01:38:56;5.60;99.90
54576;DHT22;40472;53.486;14.542;2022-11-15T01:41:25;5.60;99.90
54576;DHT22;40472;53.486;14.542;2022-11-15T01:44:42;5.60;99.90
54576;DHT22;40472;53.486;14.542;2022-11-15T01:46:43;5.50;99.90
54576;DHT22;40472;53.486;14.542;2022-11-15T01:49:15;5.60;99.90
54576;DHT22;40472;53.486;14.542;2022-11-15T01:51:42;5.70;99.90
54576;DHT22;40472;53.486;14.542;2022-11-15T01:54:10;5.70;99.90
54576;DHT22;40472;53.486;14.542;2022-11-15T01:56:46;5.70;99.90
54576;DHT22;40472;53.486;14.542;2022-11-15T01:59:14;5.60;99.90
54576;DHT22;40472;53.486;14.542;2022-11-15T02:01:40;5.70;99.90
54576;DHT22;40472;53.486;14.542;2022-11-15T02:04:12;5.60;99.90
54576;DHT22;40472;53.486;14.542;2022-11-15T02:06:39;5.60;99.90
54576;DHT22;40472;53.486;14.542;2022-11-15T02:09:05;5.60;99.90
54576;DHT22;40472;53.486;14.542;2022-11-15T02:11:31;5.50;99.90
54576;DHT22;40472;53.486;14.542;2022-11-15T02:13:58;5.60;99.90
54576;DHT22;40472;53.486;14.542;2022-11-15T02:33:27;5.70;99.90
54576;DHT22;40472;53.486;14.542;2022-11-15T02:36:21;5.60;99.90
54576;DHT22;40472;53.486;14.542;2022-11-15T02:41:48;5.70;99.90
54576;DHT22;40472;53.486;14.542;2022-11-15T02:44:24;5.80;99.90
54576;DHT22;40472;53.486;14.542;2022-11-15T02:46:59;5.70;99.90
54576;DHT22;40472;53.486;14.542;2022-11-15T02:49:51;5.70;99.90
54576;DHT22;40472;53.486;14.542;2022-11-15T02:52:19;5.70;99.90
54576;DHT22;40472;53.486;14.542;2022-11-15T02:54:56;5.70;99.90
54576;DHT22;40472;53.486;14.542;2022-11-15T02:57:45;5.70;99.90
54576;DHT22;40472;53.486;14.542;2022-11-15T03:00:15;5.80;99.90
54576;DHT22;40472;53.486;14.542;2022-11-15T03:05:55;5.70;99.90
54576;DHT22;40472;53.486;14.542;2022-11-15T03:11:30;5.70;99.90
54576;DHT22;40472;53.486;14.542;2022-11-15T03:16:34;5.70;99.90
54576;DHT22;40472;53.486;14.542;2022-11-15T03:19:24;5.60;99.90
54576;DHT22;40472;53.486;14.542;2022-11-15T03:21:52;5.60;99.90
54576;DHT22;40472;53.486;14.542;2022-11-15T03:24:20;5.60;99.90
54576;DHT22;40472;53.486;14.542;2022-11-15T03:26:53;5.70;99.90
54576;DHT22;40472;53.486;14.542;2022-11-15T03:29:27;5.70;99.90
54576;DHT22;40472;53.486;14.542;2022-11-15T03:31:59;5.80;99.90
54576;DHT22;40472;53.486;14.542;2022-11-15T03:34:39;5.80;99.90
54576;DHT22;40472;53.486;14.542;2022-11-15T03:37:07;5.70;99.90
54576;DHT22;40472;53.486;14.542;2022-11-15T03:39:37;5.60;99.90
54576;DHT22;40472;53.486;14.542;2022-11-15T03:42:20;5.70;99.90
54576;DHT22;40472;53.486;14.542;2022-11-15T03:48:07;5.70;99.90
54576;DHT22;40472;53.486;14.542;2022-11-15T03:50:12;5.60;99.90
54576;DHT22;40472;53.486;14.542;2022-11-15T03:52:39;5.70;99.90
54576;DHT22;40472;53.486;14.542;2022-11-15T03:55:10;5.70;99.90
54576;DHT22;40472;53.486;14.542;2022-11-15T03:57:36;5.60;99.90
54576;DHT22;40472;53.486;14.542;2022-11-15T04:00:03;5.70;99.90
54576;DHT22;40472;53.486;14.542;2022-11-15T04:02:29;5.60;99.90
54576;DHT22;40472;53.486;14.542;2022-11-15T04:04:58;5.60;99.90
54576;DHT22;40472;53.486;14.542;2022-11-15T04:07:26;5.60;99.90
54576;DHT22;40472;53.486;14.542;2022-11-15T04:09:51;5.60;99.90
54576;DHT22;40472;53.486;14.542;2022-11-15T04:12:31;5.60;99.90
54576;DHT22;40472;53.486;14.542;2022-11-15T04:15:01;5.60;99.90
54576;DHT22;40472;53.486;14.542;2022-11-15T04:17:41;5.70;99.90
54576;DHT22;40472;53.486;14.542;2022-11-15T04:20:17;5.70;99.90
54576;DHT22;40472;53.486;14.542;2022-11-15T04:23:05;5.70;99.90
54576;DHT22;40472;53.486;14.542;2022-11-15T04:25:54;5.60;99.90
54576;DHT22;40472;53.486;14.542;2022-11-15T04:28:21;5.50;99.90
54576;DHT22;40472;53.486;14.542;2022-11-15T04:30:47;5.60;99.90
54576;DHT22;40472;53.486;14.542;2022-11-15T04:33:13;5.60;99.90
54576;DHT22;40472;53.486;14.542;2022-11-15T04:35:39;5.70;99.90
54576;DHT22;40472;53.486;14.542;2022-11-15T04:38:07;5.70;99.90
54576;DHT22;40472;53.486;14.542;2022-11-15T04:40:34;5.70;99.90
54576;DHT22;40472;53.486;14.542;2022-11-15T04:43:00;5.60;99.90
54576;DHT22;40472;53.486;14.542;2022-11-15T04:45:25;5.60;99.90
54576;DHT22;40472;53.486;14.542;2022-11-15T04:47:51;5.50;99.90
54576;DHT22;40472;53.486;14.542;2022-11-15T04:50:17;5.60;99.90
54576;DHT22;40472;53.486;14.542;2022-11-15T04:52:49;5.50;99.90
54576;DHT22;40472;53.486;14.542;2022-11-15T04:55:16;5.50;99.90
54576;DHT22;40472;53.486;14.542;2022-11-15T04:57:42;5.50;99.90
54576;DHT22;40472;53.486;14.542;2022-11-15T05:00:10;5.50;99.90
54576;DHT22;40472;53.486;14.542;2022-11-15T05:02:37;5.50;99.90
54576;DHT22;40472;53.486;14.542;2022-11-15T05:05:21;5.40;99.90
54576;DHT22;40472;53.486;14.542;2022-11-15T05:07:47;5.50;99.90
54576;DHT22;40472;53.486;14.542;2022-11-15T05:10:16;5.60;99.90
54576;DHT22;40472;53.486;14.542;2022-11-15T05:12:42;5.50;99.90
54576;DHT22;40472;53.486;14.542;2022-11-15T05:15:08;5.50;99.90
54576;DHT22;40472;53.486;14.542;2022-11-15T05:17:34;5.50;99.90
54576;DHT22;40472;53.486;14.542;2022-11-15T05:20:00;5.50;99.90
54576;DHT22;40472;53.486;14.542;2022-11-15T05:22:28;5.40;99.90
54576;DHT22;40472;53.486;14.542;2022-11-15T05:24:59;5.40;99.90
54576;DHT22;40472;53.486;14.542;2022-11-15T05:27:24;5.40;99.90
54576;DHT22;40472;53.486;14.542;2022-11-15T05:29:50;5.40;99.90
54576;DHT22;40472;53.486;14.542;2022-11-15T05:32:16;5.40;99.90
54576;DHT22;40472;53.486;14.542;2022-11-15T05:34:43;5.40;99.90
54576;DHT22;40472;53.486;14.542;2022-11-15T05:37:09;5.40;99.90
54576;DHT22;40472;53.486;14.542;2022-11-15T05:39:35;5.40;99.90
54576;DHT22;40472;53.486;14.542;2022-11-15T05:42:06;5.40;99.90
54576;DHT22;40472;53.486;14.542;2022-11-15T05:44:34;5.40;99.90
54576;DHT22;40472;53.486;14.542;2022-11-15T05:47:03;5.40;99.90
54576;DHT22;40472;53.486;14.542;2022-11-15T05:49:32;5.40;99.90
54576;DHT22;40472;53.486;14.542;2022-11-15T05:52:03;5.40;99.90
54576;DHT22;40472;53.486;14.542;2022-11-15T05:54:31;5.40;99.90
54576;DHT22;40472;53.486;14.542;2022-11-15T05:56:59;5.40;99.90
54576;DHT22;40472;53.486;14.542;2022-11-15T05:59:27;5.40;99.90
54576;DHT22;40472;53.486;14.542;2022-11-15T06:01:55;5.40;99.90
54576;DHT22;40472;53.486;14.542;2022-11-15T06:04:20;5.30;99.90
54576;DHT22;40472;53.486;14.542;2022-11-15T06:06:46;5.30;99.90
54576;DHT22;40472;53.486;14.542;2022-11-15T06:09:12;5.30;99.90
54576;DHT22;40472;53.486;14.542;2022-11-15T06:11:38;5.30;99.90
54576;DHT22;40472;53.486;14.542;2022-11-15T06:14:03;5.30;99.90
54576;DHT22;40472;53.486;14.542;2022-11-15T06:16:29;5.30;99.90
54576;DHT22;40472;53.486;14.542;2022-11-15T06:18:55;5.30;99.90
54576;DHT22;40472;53.486;14.542;2022-11-15T06:21:21;5.40;99.90
54576;DHT22;40472;53.486;14.542;2022-11-15T06:23:47;5.30;99.90
54576;DHT22;40472;53.486;14.542;2022-11-15T06:26:13;5.20;99.90
54576;DHT22;40472;53.486;14.542;2022-11-15T06:28:38;5.30;99.90
54576;DHT22;40472;53.486;14.542;2022-11-15T06:31:06;5.20;99.90
54576;DHT22;40472;53.486;14.542;2022-11-15T06:33:32;5.20;99.90
54576;DHT22;40472;53.486;14.542;2022-11-15T06:36:05;5.20;99.90
54576;DHT22;40472;53.486;14.542;2022-11-15T06:38:31;5.20;99.90
54576;DHT22;40472;53.486;14.542;2022-11-15T06:41:06;5.20;99.90
54576;DHT22;40472;53.486;14.542;2022-11-15T06:43:32;5.20;99.90
54576;DHT22;40472;53.486;14.542;2022-11-15T06:45:58;5.30;99.90
54576;DHT22;40472;53.486;14.542;2022-11-15T06:48:25;5.30;99.90
54576;DHT22;40472;53.486;14.542;2022-11-15T06:50:55;5.30;99.90
54576;DHT22;40472;53.486;14.542;2022-11-15T06:53:21;5.40;99.90
54576;DHT22;40472;53.486;14.542;2022-11-15T06:55:47;5.40;99.90
54576;DHT22;40472;53.486;14.542;2022-11-15T06:58:13;5.30;99.90
54576;DHT22;40472;53.486;14.542;2022-11-15T07:00:39;5.30;99.90
54576;DHT22;40472;53.486;14.542;2022-11-15T07:03:05;5.30;99.90
54576;DHT22;40472;53.486;14.542;2022-11-15T07:05:31;5.30;99.90
54576;DHT22;40472;53.486;14.542;2022-11-15T07:07:58;5.30;99.90
54576;DHT22;40472;53.486;14.542;2022-11-15T07:10:24;5.40;99.90
54576;DHT22;40472;53.486;14.542;2022-11-15T07:12:54;5.40;99.90
54576;DHT22;40472;53.486;14.542;2022-11-15T07:15:22;5.30;99.90
54576;DHT22;40472;53.486;14.542;2022-11-15T07:17:48;5.30;99.90
54576;DHT22;40472;53.486;14.542;2022-11-15T07:20:15;5.40;99.90
54576;DHT22;40472;53.486;14.542;2022-11-15T07:22:41;5.30;99.90
54576;DHT22;40472;53.486;14.542;2022-11-15T07:25:08;5.40;99.90
54576;DHT22;40472;53.486;14.542;2022-11-15T07:27:34;5.30;99.90
54576;DHT22;40472;53.486;14.542;2022-11-15T07:30:00;5.40;99.90
54576;DHT22;40472;53.486;14.542;2022-11-15T07:32:26;5.50;99.90
54576;DHT22;40472;53.486;14.542;2022-11-15T07:34:52;5.50;99.90
54576;DHT22;40472;53.486;14.542;2022-11-15T07:37:18;5.40;99.90
54576;DHT22;40472;53.486;14.542;2022-11-15T07:39:44;5.30;99.90
54576;DHT22;40472;53.486;14.542;2022-11-15T07:42:13;5.50;99.90
54576;DHT22;40472;53.486;14.542;2022-11-15T07:44:57;5.40;99.90
54576;DHT22;40472;53.486;14.542;2022-11-15T07:47:28;5.50;99.90
54576;DHT22;40472;53.486;14.542;2022-11-15T07:49:54;5.40;99.90
54576;DHT22;40472;53.486;14.542;2022-11-15T07:52:20;5.40;99.90
54576;DHT22;40472;53.486;14.542;2022-11-15T07:54:45;5.50;99.90
54576;DHT22;40472;53.486;14.542;2022-11-15T07:57:14;5.40;99.90
54576;DHT22;40472;53.486;14.542;2022-11-15T07:59:40;5.40;99.90
54576;DHT22;40472;53.486;14.542;2022-11-15T08:02:09;5.40;99.90
54576;DHT22;40472;53.486;14.542;2022-11-15T08:04:37;5.40;99.90
54576;DHT22;40472;53.486;14.542;2022-11-15T08:07:02;5.50;99.90
54576;DHT22;40472;53.486;14.542;2022-11-15T08:09:28;5.50;99.90
54576;DHT22;40472;53.486;14.542;2022-11-15T08:11:54;5.40;99.90
54576;DHT22;40472;53.486;14.542;2022-11-15T08:14:20;5.40;99.90
54576;DHT22;40472;53.486;14.542;2022-11-15T08:16:47;5.40;99.90
54576;DHT22;40472;53.486;14.542;2022-11-15T08:19:14;5.50;99.90
54576;DHT22;40472;53.486;14.542;2022-11-15T08:21:40;5.70;99.90
54576;DHT22;40472;53.486;14.542;2022-11-15T08:24:07;5.60;99.90
54576;DHT22;40472;53.486;14.542;2022-11-15T08:26:37;5.70;99.90
54576;DHT22;40472;53.486;14.542;2022-11-15T08:29:02;5.60;99.90
54576;DHT22;40472;53.486;14.542;2022-11-15T08:31:28;5.70;99.90
54576;DHT22;40472;53.486;14.542;2022-11-15T08:33:54;5.80;99.90
54576;DHT22;40472;53.486;14.542;2022-11-15T08:36:20;5.90;99.90
54576;DHT22;40472;53.486;14.542;2022-11-15T08:38:46;6.00;99.90
54576;DHT22;40472;53.486;14.542;2022-11-15T08:43:52;6.00;99.90
54576;DHT22;40472;53.486;14.542;2022-11-15T08:46:18;6.00;99.90
54576;DHT22;40472;53.486;14.542;2022-11-15T08:48:44;6.00;99.90
54576;DHT22;40472;53.486;14.542;2022-11-15T08:51:10;5.90;99.90
54576;DHT22;40472;53.486;14.542;2022-11-15T08:53:36;6.20;99.90
54576;DHT22;40472;53.486;14.542;2022-11-15T08:56:02;6.30;99.90
54576;DHT22;40472;53.486;14.542;2022-11-15T08:58:28;6.30;99.90
54576;DHT22;40472;53.486;14.542;2022-11-15T09:00:54;6.30;99.90
54576;DHT22;40472;53.486;14.542;2022-11-15T09:03:20;6.30;99.90
54576;DHT22;40472;53.486;14.542;2022-11-15T09:05:46;6.20;99.90
54576;DHT22;40472;53.486;14.542;2022-11-15T09:08:11;6.20;99.90
54576;DHT22;40472;53.486;14.542;2022-11-15T09:10:39;6.20;99.90
54576;DHT22;40472;53.486;14.542;2022-11-15T09:13:08;6.20;99.90
54576;DHT22;40472;53.486;14.542;2022-11-15T09:15:36;6.20;99.90
54576;DHT22;40472;53.486;14.542;2022-11-15T09:18:06;6.20;99.90
54576;DHT22;40472;53.486;14.542;2022-11-15T09:20:32;6.20;99.90
54576;DHT22;40472;53.486;14.542;2022-11-15T09:23:02;6.30;99.90
54576;DHT22;40472;53.486;14.542;2022-11-15T09:25:29;6.40;99.90
54576;DHT22;40472;53.486;14.542;2022-11-15T09:27:55;6.60;99.90
54576;DHT22;40472;53.486;14.542;2022-11-15T09:30:24;6.60;99.90
54576;DHT22;40472;53.486;14.542;2022-11-15T09:32:50;6.70;99.90
54576;DHT22;40472;53.486;14.542;2022-11-15T09:35:19;6.90;99.90
54576;DHT22;40472;53.486;14.542;2022-11-15T09:37:50;7.00;99.90
54576;DHT22;40472;53.486;14.542;2022-11-15T09:40:24;7.00;99.90
54576;DHT22;40472;53.486;14.542;2022-11-15T09:48:42;6.90;99.90
54576;DHT22;40472;53.486;14.542;2022-11-15T09:56:31;7.10;99.90
54576;DHT22;40472;53.486;14.542;2022-11-15T10:04:15;7.10;99.90
54576;DHT22;40472;53.486;14.542;2022-11-15T10:06:47;7.10;99.90
54576;DHT22;40472;53.486;14.542;2022-11-15T10:09:22;6.90;99.90
54576;DHT22;40472;53.486;14.542;2022-11-15T10:11:49;6.80;99.90
54576;DHT22;40472;53.486;14.542;2022-11-15T10:14:18;6.70;99.90
54576;DHT22;40472;53.486;14.542;2022-11-15T10:22:29;6.70;99.90
54576;DHT22;40472;53.486;14.542;2022-11-15T10:27:40;7.20;99.90
54576;DHT22;40472;53.486;14.542;2022-11-15T10:30:18;7.40;99.90
54576;DHT22;40472;53.486;14.542;2022-11-15T10:32:46;7.50;99.90
54576;DHT22;40472;53.486;14.542;2022-11-15T10:35:26;7.20;99.90
54576;DHT22;40472;53.486;14.542;2022-11-15T10:38:05;7.20;99.90
54576;DHT22;40472;53.486;14.542;2022-11-15T10:40:32;7.40;99.90
54576;DHT22;40472;53.486;14.542;2022-11-15T10:43:15;7.50;99.90
54576;DHT22;40472;53.486;14.542;2022-11-15T10:45:41;7.60;99.90
54576;DHT22;40472;53.486;14.542;2022-11-15T10:50:44;7.80;99.90
54576;DHT22;40472;53.486;14.542;2022-11-15T10:53:33;7.80;99.90
54576;DHT22;40472;53.486;14.542;2022-11-15T10:56:06;7.80;99.90
54576;DHT22;40472;53.486;14.542;2022-11-15T10:58:50;7.80;99.90
54576;DHT22;40472;53.486;14.542;2022-11-15T11:01:23;7.50;99.90
54576;DHT22;40472;53.486;14.542;2022-11-15T11:03:59;7.40;99.90
54576;DHT22;40472;53.486;14.542;2022-11-15T11:06:53;7.30;99.90
54576;DHT22;40472;53.486;14.542;2022-11-15T11:09:38;7.20;99.90
54576;DHT22;40472;53.486;14.542;2022-11-15T11:12:09;7.20;99.90
54576;DHT22;40472;53.486;14.542;2022-11-15T11:14:37;7.20;99.90
54576;DHT22;40472;53.486;14.542;2022-11-15T11:17:23;7.10;99.90
54576;DHT22;40472;53.486;14.542;2022-11-15T11:27:45;7.50;99.90
54576;DHT22;40472;53.486;14.542;2022-11-15T11:30:24;7.20;99.90
54576;DHT22;40472;53.486;14.542;2022-11-15T11:36:06;7.10;99.90
54576;DHT22;40472;53.486;14.542;2022-11-15T11:46:47;6.80;99.90
54576;DHT22;40472;53.486;14.542;2022-11-15T11:52:18;6.80;99.90
54576;DHT22;40472;53.486;14.542;2022-11-15T12:02:39;6.90;99.90
54576;DHT22;40472;53.486;14.542;2022-11-15T12:07:49;6.80;99.90
54576;DHT22;40472;53.486;14.542;2022-11-15T12:10:22;6.60;99.90
54576;DHT22;40472;53.486;14.542;2022-11-15T12:15:29;6.70;99.90
54576;DHT22;40472;53.486;14.542;2022-11-15T12:17:57;6.70;99.90
54576;DHT22;40472;53.486;14.542;2022-11-15T12:20:33;6.70;99.90
54576;DHT22;40472;53.486;14.542;2022-11-15T12:23:16;6.70;99.90
54576;DHT22;40472;53.486;14.542;2022-11-15T12:34:15;6.60;99.90
54576;DHT22;40472;53.486;14.542;2022-11-15T12:36:43;6.60;99.90
54576;DHT22;40472;53.486;14.542;2022-11-15T12:39:11;6.70;99.90
54576;DHT22;40472;53.486;14.542;2022-11-15T12:41:39;6.60;99.90
54576;DHT22;40472;53.486;14.542;2022-11-15T12:44:11;6.50;99.90
54576;DHT22;40472;53.486;14.542;2022-11-15T12:49:41;6.50;99.90
54576;DHT22;40472;53.486;14.542;2022-11-15T12:59:48;6.30;99.90
54576;DHT22;40472;53.486;14.542;2022-11-15T13:02:39;6.40;99.90
54576;DHT22;40472;53.486;14.542;2022-11-15T13:17:49;6.40;99.90
54576;DHT22;40472;53.486;14.542;2022-11-15T13:23:07;6.10;99.90
54576;DHT22;40472;53.486;14.542;2022-11-15T13:26:13;6.10;99.90
54576;DHT22;40472;53.486;14.542;2022-11-15T13:28:45;6.10;99.90
54576;DHT22;40472;53.486;14.542;2022-11-15T13:31:20;6.00;99.90
54576;DHT22;40472;53.486;14.542;2022-11-15T13:33:48;6.00;99.90
54576;DHT22;40472;53.486;14.542;2022-11-15T13:36:25;6.00;99.90
54576;DHT22;40472;53.486;14.542;2022-11-15T13:41:27;6.00;99.90
54576;DHT22;40472;53.486;14.542;2022-11-15T13:43:54;6.00;99.90
54576;DHT22;40472;53.486;14.542;2022-11-15T13:48:51;5.90;99.90
54576;DHT22;40472;53.486;14.542;2022-11-15T13:53:47;5.90;99.90
54576;DHT22;40472;53.486;14.542;2022-11-15T13:56:19;5.90;99.90
54576;DHT22;40472;53.486;14.542;2022-11-15T13:58:46;5.80;99.90
54576;DHT22;40472;53.486;14.542;2022-11-15T14:01:19;5.80;99.90
54576;DHT22;40472;53.486;14.542;2022-11-15T14:03:56;5.70;99.90
54576;DHT22;40472;53.486;14.542;2022-11-15T14:06:28;5.70;99.90
54576;DHT22;40472;53.486;14.542;2022-11-15T14:09:26;5.80;99.90
54576;DHT22;40472;53.486;14.542;2022-11-15T14:11:50;5.80;99.90
54576;DHT22;40472;53.486;14.542;2022-11-15T14:14:23;5.80;99.90
54576;DHT22;40472;53.486;14.542;2022-11-15T14:16:52;5.80;99.90
54576;DHT22;40472;53.486;14.542;2022-11-15T14:22:22;5.80;99.90
54576;DHT22;40472;53.486;14.542;2022-11-15T14:25:16;5.80;99.90
54576;DHT22;40472;53.486;14.542;2022-11-15T14:28:08;5.80;99.90
54576;DHT22;40472;53.486;14.542;2022-11-15T14:30:34;5.80;99.90
54576;DHT22;40472;53.486;14.542;2022-11-15T14:33:00;5.70;99.90
54576;DHT22;40472;53.486;14.542;2022-11-15T14:35:28;5.70;99.90
54576;DHT22;40472;53.486;14.542;2022-11-15T14:37:54;5.70;99.90
54576;DHT22;40472;53.486;14.542;2022-11-15T14:40:21;5.80;99.90
54576;DHT22;40472;53.486;14.542;2022-11-15T14:42:49;5.80;99.90
54576;DHT22;40472;53.486;14.542;2022-11-15T14:45:19;5.80;99.90
54576;DHT22;40472;53.486;14.542;2022-11-15T14:47:45;5.80;99.90
54576;DHT22;40472;53.486;14.542;2022-11-15T14:50:21;5.70;99.90
54576;DHT22;40472;53.486;14.542;2022-11-15T14:52:48;5.70;99.90
54576;DHT22;40472;53.486;14.542;2022-11-15T14:55:21;5.70;99.90
54576;DHT22;40472;53.486;14.542;2022-11-15T14:57:47;5.70;99.90
54576;DHT22;40472;53.486;14.542;2022-11-15T15:00:13;5.70;99.90
54576;DHT22;40472;53.486;14.542;2022-11-15T15:02:40;5.60;99.90
54576;DHT22;40472;53.486;14.542;2022-11-15T15:07:55;5.60;99.90
54576;DHT22;40472;53.486;14.542;2022-11-15T15:10:21;5.60;99.90
54576;DHT22;40472;53.486;14.542;2022-11-15T15:12:48;5.60;99.90
54576;DHT22;40472;53.486;14.542;2022-11-15T15:15:22;5.60;99.90
54576;DHT22;40472;53.486;14.542;2022-11-15T15:17:49;5.50;99.90
54576;DHT22;40472;53.486;14.542;2022-11-15T15:20:15;5.40;99.90
54576;DHT22;40472;53.486;14.542;2022-11-15T15:22:41;5.40;99.90
54576;DHT22;40472;53.486;14.542;2022-11-15T15:25:36;5.30;99.90
54576;DHT22;40472;53.486;14.542;2022-11-15T15:28:02;5.40;99.90
54576;DHT22;40472;53.486;14.542;2022-11-15T15:30:29;5.30;99.90
54576;DHT22;40472;53.486;14.542;2022-11-15T15:32:56;5.30;99.90
54576;DHT22;40472;53.486;14.542;2022-11-15T15:35:22;5.30;99.90
54576;DHT22;40472;53.486;14.542;2022-11-15T15:37:48;5.40;99.90
54576;DHT22;40472;53.486;14.542;2022-11-15T15:40:31;5.30;99.90
54576;DHT22;40472;53.486;14.542;2022-11-15T15:42:59;5.40;99.90
54576;DHT22;40472;53.486;14.542;2022-11-15T15:45:26;5.30;99.90
54576;DHT22;40472;53.486;14.542;2022-11-15T15:47:54;5.30;99.90
54576;DHT22;40472;53.486;14.542;2022-11-15T15:50:26;5.30;99.90
54576;DHT22;40472;53.486;14.542;2022-11-15T15:52:55;5.30;99.90
54576;DHT22;40472;53.486;14.542;2022-11-15T15:55:21;5.30;99.90
54576;DHT22;40472;53.486;14.542;2022-11-15T15:57:48;5.30;99.90
54576;DHT22;40472;53.486;14.542;2022-11-15T16:00:15;5.30;99.90
54576;DHT22;40472;53.486;14.542;2022-11-15T16:02:41;5.30;99.90
54576;DHT22;40472;53.486;14.542;2022-11-15T16:05:08;5.30;99.90
54576;DHT22;40472;53.486;14.542;2022-11-15T16:07:34;5.30;99.90
54576;DHT22;40472;53.486;14.542;2022-11-15T16:10:00;5.30;99.90
54576;DHT22;40472;53.486;14.542;2022-11-15T16:12:35;5.30;99.90
54576;DHT22;40472;53.486;14.542;2022-11-15T16:15:02;5.30;99.90
54576;DHT22;40472;53.486;14.542;2022-11-15T16:17:38;5.30;99.90
54576;DHT22;40472;53.486;14.542;2022-11-15T16:20:06;5.40;99.90
54576;DHT22;40472;53.486;14.542;2022-11-15T16:22:32;5.40;99.90
54576;DHT22;40472;53.486;14.542;2022-11-15T16:24:57;5.40;99.90
54576;DHT22;40472;53.486;14.542;2022-11-15T16:27:23;5.40;99.90
54576;DHT22;40472;53.486;14.542;2022-11-15T16:29:49;5.40;99.90
54576;DHT22;40472;53.486;14.542;2022-11-15T16:32:15;5.50;99.90
54576;DHT22;40472;53.486;14.542;2022-11-15T16:34:41;5.40;99.90
54576;DHT22;40472;53.486;14.542;2022-11-15T16:37:23;5.40;99.90
54576;DHT22;40472;53.486;14.542;2022-11-15T16:39:49;5.40;99.90
54576;DHT22;40472;53.486;14.542;2022-11-15T16:42:16;5.40;99.90
54576;DHT22;40472;53.486;14.542;2022-11-15T16:44:42;5.40;99.90
54576;DHT22;40472;53.486;14.542;2022-11-15T16:47:19;5.50;99.90
54576;DHT22;40472;53.486;14.542;2022-11-15T16:49:45;5.40;99.90
54576;DHT22;40472;53.486;14.542;2022-11-15T16:52:11;5.40;99.90
54576;DHT22;40472;53.486;14.542;2022-11-15T16:54:37;5.50;99.90
54576;DHT22;40472;53.486;14.542;2022-11-15T16:57:03;5.50;99.90
54576;DHT22;40472;53.486;14.542;2022-11-15T16:59:29;5.60;99.90
54576;DHT22;40472;53.486;14.542;2022-11-15T17:01:57;5.50;99.90
54576;DHT22;40472;53.486;14.542;2022-11-15T17:04:23;5.60;99.90
54576;DHT22;40472;53.486;14.542;2022-11-15T17:06:49;5.50;99.90
54576;DHT22;40472;53.486;14.542;2022-11-15T17:09:20;5.50;99.90
54576;DHT22;40472;53.486;14.542;2022-11-15T17:11:49;5.50;99.90
54576;DHT22;40472;53.486;14.542;2022-11-15T17:14:15;5.50;99.90
54576;DHT22;40472;53.486;14.542;2022-11-15T17:16:41;5.50;99.90
54576;DHT22;40472;53.486;14.542;2022-11-15T17:19:16;5.50;99.90
54576;DHT22;40472;53.486;14.542;2022-11-15T17:21:43;5.60;99.90
54576;DHT22;40472;53.486;14.542;2022-11-15T17:24:09;5.60;99.90
54576;DHT22;40472;53.486;14.542;2022-11-15T17:26:35;5.60;99.90
54576;DHT22;40472;53.486;14.542;2022-11-15T17:29:01;5.60;99.90
54576;DHT22;40472;53.486;14.542;2022-11-15T17:31:29;5.60;99.90
54576;DHT22;40472;53.486;14.542;2022-11-15T17:33:58;5.60;99.90
54576;DHT22;40472;53.486;14.542;2022-11-15T17:36:23;5.60;99.90
54576;DHT22;40472;53.486;14.542;2022-11-15T17:38:49;5.60;99.90
54576;DHT22;40472;53.486;14.542;2022-11-15T17:41:18;5.60;99.90
54576;DHT22;40472;53.486;14.542;2022-11-15T17:43:45;5.50;99.90
54576;DHT22;40472;53.486;14.542;2022-11-15T17:46:14;5.50;99.90
54576;DHT22;40472;53.486;14.542;2022-11-15T17:48:40;5.50;99.90
54576;DHT22;40472;53.486;14.542;2022-11-15T17:51:10;5.50;99.90
54576;DHT22;40472;53.486;14.542;2022-11-15T17:53:39;5.50;99.90
54576;DHT22;40472;53.486;14.542;2022-11-15T17:56:16;5.50;99.90
54576;DHT22;40472;53.486;14.542;2022-11-15T17:58:50;5.60;99.90
54576;DHT22;40472;53.486;14.542;2022-11-15T18:01:22;5.60;99.90
54576;DHT22;40472;53.486;14.542;2022-11-15T18:03:49;5.60;99.90
54576;DHT22;40472;53.486;14.542;2022-11-15T18:06:16;5.70;99.90
54576;DHT22;40472;53.486;14.542;2022-11-15T18:08:44;5.70;99.90
54576;DHT22;40472;53.486;14.542;2022-11-15T18:11:15;5.70;99.90
54576;DHT22;40472;53.486;14.542;2022-11-15T18:13:43;5.60;99.90